createdAt,value
2019-04-04T06:27:33.219Z,17.80
2019-04-04T06:28:33.230Z,17.00
2019-04-04T06:29:33.245Z,16.60
2019-04-04T06:30:43.238Z,18.10
2019-04-04T06:31:33.272Z,17.70
2019-04-04T06:32:33.280Z,16.60
2019-04-04T06:33:35.248Z,17.00
2019-04-04T06:34:33.813Z,17.70
2019-04-04T06:35:33.313Z,17.80
2019-04-04T06:36:33.322Z,18.40
2019-04-04T06:37:34.451Z,17.40
2019-04-04T06:39:33.366Z,17.60
2019-04-04T06:40:35.230Z,17.90
2019-04-04T06:41:34.708Z,17.90
2019-04-04T06:42:36.067Z,18.40
2019-04-04T06:43:33.411Z,17.80
2019-04-04T06:44:33.430Z,17.70
2019-04-04T06:45:33.872Z,18.10
2019-04-04T06:46:33.469Z,16.80
2019-04-04T06:47:33.625Z,16.20
2019-04-04T06:48:33.983Z,16.10
2019-04-04T06:49:35.505Z,16.40
2019-04-04T06:50:33.491Z,15.60
2019-04-04T06:51:33.619Z,15.40
2019-04-04T06:52:33.529Z,14.50
2019-04-04T06:53:33.531Z,14.20
2019-04-04T06:54:33.540Z,15.20
2019-04-04T06:55:37.377Z,15.40
2019-04-04T06:56:34.042Z,15.70
2019-04-04T06:57:36.156Z,14.80
2019-04-04T06:58:33.599Z,15.70
2019-04-04T06:59:33.988Z,16.20
2019-04-04T07:00:33.612Z,15.90
2019-04-04T07:01:35.138Z,15.80
2019-04-04T07:02:33.659Z,16.30
2019-04-04T07:03:33.699Z,16.80
2019-04-04T07:04:36.089Z,16.30
2019-04-04T07:05:33.672Z,17.60
2019-04-04T07:06:33.683Z,16.40
2019-04-04T07:07:33.726Z,16.60
2019-04-04T07:08:33.708Z,16.40
2019-04-04T07:09:33.721Z,16.00
2019-04-04T07:10:33.740Z,16.80
2019-04-04T07:11:35.105Z,17.50
2019-04-04T07:12:33.759Z,17.60
2019-04-04T07:13:42.441Z,18.00
2019-04-04T07:14:45.201Z,17.30
2019-04-04T07:15:45.868Z,17.40
2019-04-04T07:16:34.205Z,17.80
2019-04-04T07:17:33.819Z,17.80
2019-04-04T07:18:33.853Z,18.20
2019-04-04T07:19:33.843Z,18.50
2019-04-04T07:20:33.862Z,18.00
2019-04-04T07:21:33.876Z,19.00
2019-04-04T07:22:33.878Z,18.60
2019-04-04T07:23:33.903Z,19.40
2019-04-04T07:24:34.073Z,18.60
2019-04-04T07:25:35.835Z,18.30
2019-04-04T07:26:33.927Z,18.80
2019-04-04T07:27:33.955Z,18.10
2019-04-04T07:28:36.544Z,19.70
2019-04-04T07:29:36.432Z,19.10
2019-04-04T07:30:35.463Z,18.80
2019-04-04T07:31:38.315Z,18.40
2019-04-04T07:32:35.222Z,18.10
2019-04-04T07:33:34.014Z,18.30
2019-04-04T07:34:34.041Z,18.10
2019-04-04T07:35:34.051Z,17.90
2019-04-04T07:36:34.059Z,17.80
2019-04-04T07:37:34.083Z,18.80
2019-04-04T07:38:35.095Z,18.60
2019-04-04T07:39:34.187Z,18.20
2019-04-04T07:40:36.319Z,19.10
2019-04-04T07:41:34.111Z,18.20
2019-04-04T07:42:34.117Z,18.60
2019-04-04T07:43:34.494Z,18.10
2019-04-04T07:44:34.921Z,19.00
2019-04-04T07:45:34.176Z,18.80
2019-04-04T07:46:34.820Z,19.10
2019-04-04T07:47:34.518Z,20.30
2019-04-04T07:48:34.282Z,18.60
2019-04-04T07:49:34.219Z,18.20
2019-04-04T07:50:35.208Z,19.50
2019-04-04T07:51:36.590Z,19.40
2019-04-04T07:52:36.795Z,19.80
2019-04-04T07:54:37.995Z,21.30
2019-04-04T07:57:35.186Z,20.60
2019-04-04T07:59:34.502Z,22.00
2019-04-04T08:00:34.370Z,20.70
2019-04-04T08:01:35.034Z,20.80
2019-04-04T08:03:34.419Z,19.80
2019-04-04T08:04:34.686Z,21.30
2019-04-04T08:05:34.598Z,22.20
2019-04-04T08:06:34.436Z,20.40
2019-04-04T08:07:34.498Z,20.80
2019-04-04T08:08:34.849Z,21.00
2019-04-04T08:09:34.460Z,19.60
2019-04-04T08:10:34.476Z,20.50
2019-04-04T08:12:34.635Z,20.60
2019-04-04T08:13:34.511Z,19.70
2019-04-04T08:14:34.529Z,19.70
2019-04-04T08:16:35.875Z,19.60
2019-04-04T08:17:34.546Z,20.00
2019-04-04T08:18:34.559Z,20.80
2019-04-04T08:19:34.595Z,18.50
2019-04-04T08:20:35.669Z,18.50
2019-04-04T08:21:36.204Z,19.00
2019-04-04T08:22:34.883Z,18.90
2019-04-04T08:24:34.661Z,19.80
2019-04-04T08:25:34.737Z,19.10
2019-04-04T08:26:34.789Z,19.80
2019-04-04T08:28:34.817Z,19.40
2019-04-04T08:29:34.760Z,18.10
2019-04-04T08:30:35.295Z,18.60
2019-04-04T08:31:34.747Z,18.60
2019-04-04T08:32:34.730Z,17.50
2019-04-04T08:33:34.877Z,18.20
2019-04-04T08:34:36.397Z,17.50
2019-04-04T08:35:34.794Z,17.70
2019-04-04T08:36:37.912Z,16.60
2019-04-04T08:37:34.828Z,16.30
2019-04-04T08:38:35.291Z,16.40
2019-04-04T08:39:35.391Z,16.20
2019-04-04T08:40:34.846Z,17.00
2019-04-04T08:41:35.079Z,17.30
2019-04-04T08:42:34.868Z,17.90
2019-04-04T08:43:34.890Z,18.10
2019-04-04T08:44:35.293Z,17.50
2019-04-04T08:45:34.893Z,17.40
2019-04-04T08:47:36.033Z,15.00
2019-04-04T08:48:35.638Z,15.00
2019-04-04T08:49:34.938Z,14.10
2019-04-04T08:51:34.960Z,14.90
2019-04-04T08:52:34.969Z,14.00
2019-04-04T08:53:40.159Z,14.20
2019-04-04T08:54:35.087Z,14.00
2019-04-04T08:55:35.049Z,14.20
2019-04-04T08:56:35.329Z,15.10
2019-04-04T08:57:35.047Z,15.80
2019-04-04T08:58:35.066Z,15.80
2019-04-04T09:00:35.082Z,16.40
2019-04-04T09:01:35.121Z,16.80
2019-04-04T09:02:35.284Z,17.20
2019-04-04T09:03:35.113Z,15.90
2019-04-04T09:04:35.371Z,15.60
2019-04-04T09:05:35.231Z,14.80
2019-04-04T09:06:35.140Z,15.20
2019-04-04T09:07:35.884Z,14.30
2019-04-04T09:08:35.513Z,14.50
2019-04-04T09:09:35.260Z,13.90
2019-04-04T09:10:35.204Z,13.00
2019-04-04T09:11:35.288Z,13.70
2019-04-04T09:12:35.421Z,13.40
2019-04-04T09:13:35.239Z,13.00
2019-04-04T09:14:35.249Z,14.20
2019-04-04T09:15:35.266Z,14.30
2019-04-04T09:16:35.263Z,14.30
2019-04-04T09:17:35.283Z,13.20
2019-04-04T09:18:35.338Z,13.60
2019-04-04T09:19:35.308Z,14.10
2019-04-04T09:20:35.343Z,12.90
2019-04-04T09:21:35.387Z,12.90
2019-04-04T09:22:35.354Z,13.60
2019-04-04T09:23:35.629Z,13.60
2019-04-04T09:24:36.109Z,13.90
2019-04-04T09:25:35.682Z,13.60
2019-04-04T09:26:35.389Z,13.30
2019-04-04T09:27:35.691Z,13.30
2019-04-04T09:28:35.434Z,13.30
2019-04-04T09:29:35.498Z,13.00
2019-04-04T09:30:35.459Z,13.30
2019-04-04T09:31:35.470Z,13.40
2019-04-04T09:32:35.482Z,13.80
2019-04-04T09:33:35.530Z,12.80
2019-04-04T09:34:35.504Z,13.40
2019-04-04T09:35:35.521Z,12.30
2019-04-04T09:36:35.539Z,11.70
2019-04-04T09:37:35.549Z,12.30
2019-04-04T09:38:35.547Z,12.30
2019-04-04T09:39:35.560Z,12.00
2019-04-04T09:40:35.572Z,12.20
2019-04-04T09:41:35.587Z,12.30
2019-04-04T09:42:35.594Z,11.00
2019-04-04T09:43:35.603Z,12.50
2019-04-04T09:44:35.619Z,11.70
2019-04-04T09:45:35.637Z,12.10
2019-04-04T09:46:35.641Z,12.80
2019-04-04T09:47:35.818Z,12.60
2019-04-04T09:48:35.799Z,12.60
2019-04-04T09:49:35.855Z,12.50
2019-04-04T09:50:35.699Z,11.90
2019-04-04T09:51:35.708Z,12.00
2019-04-04T09:52:35.722Z,12.00
2019-04-04T09:54:36.047Z,11.80
2019-04-04T09:55:35.767Z,10.60
2019-04-04T09:56:35.789Z,10.40
2019-04-04T09:57:35.784Z,11.70
2019-04-04T09:58:35.813Z,10.80
2019-04-04T09:59:35.811Z,11.20
2019-04-04T10:00:35.825Z,10.60
2019-04-04T10:01:35.849Z,11.00
2019-04-04T10:02:35.848Z,10.80
2019-04-04T10:03:35.867Z,10.50
2019-04-04T10:04:35.887Z,10.50
2019-04-04T10:05:35.890Z,10.90
2019-04-04T10:06:35.903Z,9.90
2019-04-04T10:07:35.922Z,10.10
2019-04-04T10:08:38.677Z,10.10
2019-04-04T10:09:35.967Z,9.30
2019-04-04T10:10:35.959Z,10.20
2019-04-04T10:11:35.997Z,9.30
2019-04-04T10:12:36.008Z,9.40
2019-04-04T10:13:36.004Z,9.00
2019-04-04T10:14:36.010Z,9.70
2019-04-04T10:15:36.019Z,9.50
2019-04-04T10:16:36.048Z,10.50
2019-04-04T10:17:36.095Z,10.10
2019-04-04T10:18:36.184Z,9.80
2019-04-04T10:19:36.084Z,10.10
2019-04-04T10:20:36.095Z,10.80
2019-04-04T10:21:36.104Z,10.50
2019-04-04T10:22:36.123Z,11.00
2019-04-04T10:23:36.509Z,10.50
2019-04-04T10:24:36.166Z,10.00
2019-04-04T10:25:36.150Z,11.20
2019-04-04T10:27:36.321Z,10.80
2019-04-04T10:28:36.213Z,11.70
2019-04-04T10:29:36.216Z,11.70
2019-04-04T10:30:36.239Z,10.30
2019-04-04T10:31:36.252Z,11.40
2019-04-04T10:32:36.262Z,10.50
2019-04-04T10:33:36.265Z,11.30
2019-04-04T10:34:36.302Z,11.10
2019-04-04T10:35:36.321Z,11.00
2019-04-04T10:36:36.305Z,10.90
2019-04-04T10:37:36.342Z,10.30
2019-04-04T10:38:36.330Z,10.00
2019-04-04T10:39:36.489Z,10.80
2019-04-04T10:40:36.342Z,11.00
2019-04-04T10:41:36.365Z,10.40
2019-04-04T10:42:36.372Z,11.10
2019-04-04T10:43:36.377Z,11.00
2019-04-04T10:44:37.181Z,11.80
2019-04-04T10:45:36.427Z,11.00
2019-04-04T10:46:36.417Z,10.90
2019-04-04T10:47:36.426Z,11.50
2019-04-04T10:48:36.443Z,10.90
2019-04-04T10:49:36.461Z,11.20
2019-04-04T10:50:36.481Z,10.80
2019-04-04T10:51:36.483Z,11.60
2019-04-04T10:52:36.495Z,11.00
2019-04-04T10:53:36.512Z,11.00
2019-04-04T10:54:36.530Z,10.90
2019-04-04T10:55:36.583Z,12.30
2019-04-04T10:56:36.547Z,12.10
2019-04-04T10:57:36.560Z,12.00
2019-04-04T10:58:36.570Z,12.20
2019-04-04T10:59:36.603Z,11.60
2019-04-04T11:00:36.598Z,12.10
2019-04-04T11:01:36.606Z,11.70
2019-04-04T11:02:36.628Z,11.50
2019-04-04T11:03:36.698Z,11.10
2019-04-04T11:04:36.649Z,10.40
2019-04-04T11:05:36.660Z,11.20
2019-04-04T11:06:36.682Z,11.60
2019-04-04T11:07:36.723Z,10.80
2019-04-04T11:08:36.701Z,10.50
2019-04-04T11:09:42.132Z,11.00
2019-04-04T11:10:36.729Z,10.80
2019-04-04T11:11:36.739Z,10.70
2019-04-04T11:12:36.753Z,10.50
2019-04-04T11:13:36.775Z,11.50
2019-04-04T11:14:36.781Z,11.50
2019-04-04T11:15:36.791Z,10.70
2019-04-04T11:16:36.805Z,9.60
2019-04-04T11:17:36.819Z,10.90
2019-04-04T11:18:36.839Z,11.40
2019-04-04T11:19:36.840Z,11.80
2019-04-04T11:20:36.856Z,11.40
2019-04-04T11:21:36.898Z,11.70
2019-04-04T11:22:36.883Z,11.50
2019-04-04T11:23:36.907Z,11.30
2019-04-04T11:24:36.942Z,11.30
2019-04-04T11:25:36.926Z,11.10
2019-04-04T11:26:36.945Z,10.70
2019-04-04T11:27:36.950Z,11.00
2019-04-04T11:28:36.959Z,10.90
2019-04-04T11:29:36.976Z,10.80
2019-04-04T11:31:37.004Z,11.20
2019-04-04T11:32:37.874Z,11.30
2019-04-04T11:33:37.031Z,11.40
2019-04-04T11:34:37.062Z,11.40
2019-04-04T11:35:37.062Z,11.40
2019-04-04T11:36:37.085Z,11.70
2019-04-04T11:37:37.088Z,10.80
2019-04-04T11:38:37.093Z,12.20
2019-04-04T11:39:37.118Z,12.20
2019-04-04T11:40:37.118Z,12.00
2019-04-04T11:41:37.141Z,12.90
2019-04-04T11:42:37.141Z,12.20
2019-04-04T11:43:37.169Z,12.30
2019-04-04T11:44:37.167Z,12.20
2019-04-04T11:45:38.158Z,12.70
2019-04-04T11:46:37.295Z,12.70
2019-04-04T11:47:37.225Z,13.00
2019-04-04T11:48:37.229Z,12.60
2019-04-04T11:49:37.234Z,12.70
2019-04-04T11:50:39.623Z,13.60
2019-04-04T11:51:37.431Z,12.00
2019-04-04T11:52:37.277Z,12.70
2019-04-04T11:53:37.292Z,13.30
2019-04-04T11:54:37.302Z,12.70
2019-04-04T11:55:37.329Z,12.90
2019-04-04T11:56:37.345Z,13.50
2019-04-04T11:57:37.349Z,13.20
2019-04-04T11:58:37.452Z,14.70
2019-04-04T11:59:37.398Z,14.20
2019-04-04T12:00:37.397Z,13.50
2019-04-04T12:01:37.393Z,13.70
2019-04-04T12:02:37.421Z,14.20
2019-04-04T12:03:37.432Z,13.70
2019-04-04T12:04:37.463Z,14.00
2019-04-04T12:05:37.450Z,13.90
2019-04-04T12:06:37.461Z,14.00
2019-04-04T12:07:38.478Z,13.60
2019-04-04T12:08:37.477Z,14.20
2019-04-04T12:09:37.504Z,13.00
2019-04-04T12:10:37.505Z,14.10
2019-04-04T12:11:37.711Z,14.10
2019-04-04T12:12:38.022Z,13.30
2019-04-04T12:13:37.689Z,13.60
2019-04-04T12:14:37.749Z,14.10
2019-04-04T12:15:37.574Z,13.80
2019-04-04T12:16:37.773Z,13.70
2019-04-04T12:17:37.597Z,14.20
2019-04-04T12:18:37.606Z,13.80
2019-04-04T12:20:37.644Z,13.60
2019-04-04T12:21:37.653Z,14.10
2019-04-04T12:22:37.661Z,13.10
2019-04-04T12:23:37.679Z,13.00
2019-04-04T12:24:37.684Z,12.60
2019-04-04T12:25:37.710Z,13.10
2019-04-04T12:26:38.299Z,13.50
2019-04-04T12:27:37.743Z,12.60
2019-04-04T12:28:37.741Z,13.40
2019-04-04T12:29:37.775Z,13.20
2019-04-04T12:30:37.794Z,13.50
2019-04-04T12:31:37.790Z,14.00
2019-04-04T12:32:37.793Z,13.70
2019-04-04T12:33:37.800Z,11.90
2019-04-04T12:34:37.812Z,12.20
2019-04-04T12:35:37.826Z,13.00
2019-04-04T12:36:37.844Z,12.90
2019-04-04T12:37:37.857Z,12.30
2019-04-04T12:38:37.873Z,11.40
2019-04-04T12:39:37.887Z,12.50
2019-04-04T12:40:37.939Z,12.70
2019-04-04T12:41:37.904Z,12.80
2019-04-04T12:42:37.917Z,13.10
2019-04-04T12:43:37.934Z,12.10
2019-04-04T12:44:37.944Z,12.80
2019-04-04T12:45:37.967Z,12.50
2019-04-04T12:46:37.974Z,12.90
2019-04-04T12:47:37.983Z,13.00
2019-04-04T12:48:38.017Z,14.00
2019-04-04T12:49:38.008Z,12.70
2019-04-04T12:50:38.023Z,13.30
2019-04-04T12:51:38.037Z,13.90
2019-04-04T12:52:38.050Z,13.30
2019-04-04T12:53:38.063Z,12.10
2019-04-04T12:54:38.080Z,12.10
2019-04-04T12:55:38.091Z,11.70
2019-04-04T12:56:38.105Z,12.30
2019-04-04T12:57:38.120Z,12.40
2019-04-04T12:58:38.123Z,11.50
2019-04-04T12:59:38.136Z,12.20
2019-04-04T13:00:38.152Z,12.90
2019-04-04T13:01:38.168Z,11.90
2019-04-04T13:02:38.185Z,12.60
2019-04-04T13:03:38.189Z,12.70
2019-04-04T13:04:38.199Z,12.00
2019-04-04T13:05:38.222Z,11.50
2019-04-04T13:06:38.245Z,13.30
2019-04-04T13:07:38.241Z,12.60
2019-04-04T13:08:38.289Z,12.10
2019-04-04T13:09:38.274Z,13.50
2019-04-04T13:10:38.285Z,13.10
2019-04-04T13:11:38.302Z,13.10
2019-04-04T13:12:38.303Z,13.10
2019-04-04T13:13:38.515Z,13.00
2019-04-04T13:14:38.335Z,13.00
2019-04-04T13:15:38.363Z,12.60
2019-04-04T13:16:38.360Z,13.20
2019-04-04T13:17:38.380Z,12.40
2019-04-04T13:18:38.400Z,13.60
2019-04-04T13:19:38.403Z,13.90
2019-04-04T13:20:39.127Z,12.50
2019-04-04T13:21:38.431Z,13.00
2019-04-04T13:22:38.440Z,13.10
2019-04-04T13:23:38.448Z,14.00
2019-04-04T13:24:38.486Z,13.20
2019-04-04T13:25:39.010Z,13.70
2019-04-04T13:26:38.506Z,13.40
2019-04-04T13:27:38.508Z,13.20
2019-04-04T13:28:38.535Z,13.90
2019-04-04T13:29:38.567Z,12.50
2019-04-04T13:30:38.549Z,12.80
2019-04-04T13:31:39.101Z,11.50
2019-04-04T13:32:38.665Z,11.50
2019-04-04T13:33:38.604Z,10.50
2019-04-04T13:34:38.597Z,10.30
2019-04-04T13:35:38.638Z,10.50
2019-04-04T13:36:38.614Z,10.40
2019-04-04T13:37:39.773Z,9.20
2019-04-04T13:38:38.643Z,8.50
2019-04-04T13:39:38.654Z,9.30
2019-04-04T13:40:45.176Z,9.10
2019-04-04T13:41:38.688Z,8.70
2019-04-04T13:42:38.720Z,8.30
2019-04-04T13:43:38.830Z,8.20
2019-04-04T13:44:38.731Z,7.70
2019-04-04T13:45:38.931Z,8.70
2019-04-04T13:46:38.801Z,8.80
2019-04-04T13:47:40.321Z,8.90
2019-04-04T13:48:38.768Z,8.90
2019-04-04T13:49:38.779Z,8.50
2019-04-04T13:50:39.785Z,8.00
2019-04-04T13:51:38.828Z,8.60
2019-04-04T13:52:38.828Z,8.50
2019-04-04T13:53:41.275Z,9.00
2019-04-04T13:54:38.891Z,9.50
2019-04-04T13:55:39.369Z,9.50
2019-04-04T13:56:38.886Z,8.20
2019-04-04T13:57:39.399Z,7.30
2019-04-04T13:58:38.944Z,7.30
2019-04-04T13:59:38.935Z,6.40
2019-04-04T14:00:38.923Z,6.40
2019-04-04T14:01:41.868Z,6.20
2019-04-04T14:02:38.972Z,6.10
2019-04-04T14:03:38.989Z,6.20
2019-04-04T14:04:38.977Z,6.00
2019-04-04T14:05:38.988Z,5.30
2019-04-04T14:06:38.996Z,5.70
2019-04-04T14:07:39.004Z,5.50
2019-04-04T14:08:39.578Z,5.50
2019-04-04T14:09:39.043Z,5.40
2019-04-04T14:10:39.084Z,5.70
2019-04-04T14:11:41.245Z,5.00
2019-04-04T14:12:39.072Z,5.00
2019-04-04T14:13:39.139Z,5.10
2019-04-04T14:14:39.097Z,5.00
2019-04-04T14:15:39.103Z,5.10
2019-04-04T14:16:39.121Z,4.90
2019-04-04T14:17:39.163Z,5.00
2019-04-04T14:18:40.273Z,5.10
2019-04-04T14:19:39.177Z,5.20
2019-04-04T14:20:39.189Z,4.80
2019-04-04T14:21:39.202Z,5.30
2019-04-04T14:22:39.203Z,5.40
2019-04-04T14:23:39.224Z,5.40
2019-04-04T14:24:39.226Z,5.00
2019-04-04T14:25:39.231Z,5.30
2019-04-04T14:26:39.633Z,5.10
2019-04-04T14:27:39.267Z,5.20
2019-04-04T14:28:39.265Z,5.20
2019-04-04T14:29:39.278Z,5.30
2019-04-04T14:30:39.296Z,5.20
2019-04-04T14:31:39.312Z,4.80
2019-04-04T14:32:39.315Z,5.20
2019-04-04T14:33:39.348Z,5.00
2019-04-04T14:34:39.351Z,5.90
2019-04-04T14:35:39.367Z,5.30
2019-04-04T14:36:39.379Z,5.00
2019-04-04T14:37:39.387Z,5.00
2019-04-04T14:38:39.403Z,5.20
2019-04-04T14:39:39.415Z,4.70
2019-04-04T14:40:40.055Z,5.20
2019-04-04T14:41:39.988Z,5.80
2019-04-04T14:42:39.855Z,4.80
2019-04-04T14:43:39.451Z,4.90
2019-04-04T14:44:39.480Z,5.20
2019-04-04T14:45:40.606Z,4.90
2019-04-04T14:46:39.985Z,4.60
2019-04-04T14:47:39.532Z,4.90
2019-04-04T14:48:42.037Z,5.00
2019-04-04T14:49:39.525Z,5.30
2019-04-04T14:50:39.565Z,5.50
2019-04-04T14:51:39.553Z,5.40
2019-04-04T14:52:39.870Z,5.30
2019-04-04T14:53:39.589Z,5.30
2019-04-04T14:54:39.619Z,5.50
2019-04-04T14:55:39.594Z,5.40
2019-04-04T14:56:39.618Z,5.60
2019-04-04T14:57:39.634Z,5.60
2019-04-04T14:58:39.635Z,5.60
2019-04-04T14:59:39.657Z,5.80
2019-04-04T15:00:39.683Z,5.50
2019-04-04T15:01:39.673Z,5.10
2019-04-04T15:02:39.686Z,5.30
2019-04-04T15:03:42.055Z,5.50
2019-04-04T15:04:39.719Z,5.40
2019-04-04T15:05:39.728Z,5.50
2019-04-04T15:06:39.735Z,5.90
2019-04-04T15:07:39.762Z,5.50
2019-04-04T15:08:39.761Z,5.30
2019-04-04T15:09:39.794Z,5.60
2019-04-04T15:10:39.804Z,5.70
2019-04-04T15:11:39.799Z,6.00
2019-04-04T15:12:39.808Z,5.80
2019-04-04T15:13:39.822Z,5.70
2019-04-04T15:14:39.834Z,6.10
2019-04-04T15:15:39.854Z,6.10
2019-04-04T15:16:39.862Z,6.00
2019-04-04T15:17:39.872Z,5.90
2019-04-04T15:18:39.885Z,5.90
2019-04-04T15:19:39.897Z,6.20
2019-04-04T15:20:39.907Z,6.10
2019-04-04T15:21:39.922Z,5.80
2019-04-04T15:22:39.930Z,6.60
2019-04-04T15:23:39.963Z,6.60
2019-04-04T15:24:39.954Z,5.70
2019-04-04T15:25:39.989Z,6.80
2019-04-04T15:26:40.036Z,6.60
2019-04-04T15:27:40.016Z,6.20
2019-04-04T15:28:40.035Z,6.90
2019-04-04T15:29:40.026Z,6.70
2019-04-04T15:30:40.042Z,6.40
2019-04-04T15:31:40.047Z,6.60
2019-04-04T15:32:40.060Z,6.90
2019-04-04T15:33:40.086Z,6.00
2019-04-04T15:34:40.081Z,6.50
2019-04-04T15:35:40.143Z,7.30
2019-04-04T15:36:40.329Z,6.80
2019-04-04T15:37:40.121Z,6.80
2019-04-04T15:38:40.179Z,7.10
2019-04-04T15:39:40.150Z,6.80
2019-04-04T15:40:40.155Z,6.70
2019-04-04T15:41:40.228Z,7.30
2019-04-04T15:42:40.553Z,7.20
2019-04-04T15:43:40.215Z,6.50
2019-04-04T15:44:40.208Z,6.90
2019-04-04T15:45:40.220Z,6.70
2019-04-04T15:46:40.240Z,7.10
2019-04-04T15:47:40.244Z,6.80
2019-04-04T15:48:40.260Z,7.50
2019-04-04T15:49:40.268Z,6.70
2019-04-04T15:50:40.289Z,7.40
2019-04-04T15:51:40.294Z,7.40
2019-04-04T15:52:40.311Z,7.40
2019-04-04T15:53:40.317Z,7.20
2019-04-04T15:54:40.328Z,8.00
2019-04-04T15:55:40.345Z,8.00
2019-04-04T15:56:40.484Z,7.30
2019-04-04T15:57:40.375Z,7.40
2019-04-04T15:58:40.397Z,7.20
2019-04-04T15:59:40.399Z,7.60
2019-04-04T16:00:40.403Z,8.10
2019-04-04T16:01:40.417Z,7.90
2019-04-04T16:02:40.429Z,7.70
2019-04-04T16:03:40.502Z,7.90
2019-04-04T16:05:40.476Z,8.50
2019-04-04T16:06:40.477Z,8.00
2019-04-04T16:07:40.551Z,8.30
2019-04-04T16:08:40.535Z,8.00
2019-04-04T16:09:40.657Z,7.40
2019-04-04T16:10:40.526Z,8.10
2019-04-04T16:11:49.472Z,7.30
2019-04-04T16:12:40.552Z,7.90
2019-04-04T16:13:40.565Z,7.90
2019-04-04T16:14:40.598Z,8.30
2019-04-04T16:15:40.586Z,7.00
2019-04-04T16:16:40.598Z,7.50
2019-04-04T16:17:40.663Z,7.10
2019-04-04T16:18:40.623Z,7.30
2019-04-04T16:19:40.636Z,7.60
2019-04-04T16:20:40.667Z,7.90
2019-04-04T16:21:40.670Z,8.30
2019-04-04T16:22:40.674Z,8.00
2019-04-04T16:23:40.687Z,7.90
2019-04-04T16:24:40.712Z,7.70
2019-04-04T16:25:40.714Z,8.30
2019-04-04T16:26:40.740Z,7.80
2019-04-04T16:27:40.736Z,8.20
2019-04-04T16:28:40.755Z,7.60
2019-04-04T16:29:40.783Z,8.50
2019-04-04T16:30:40.776Z,7.70
2019-04-04T16:31:40.784Z,8.30
2019-04-04T16:32:40.797Z,8.10
2019-04-04T16:33:40.808Z,8.00
2019-04-04T16:34:40.818Z,7.70
2019-04-04T16:35:40.842Z,8.20
2019-04-04T16:36:40.845Z,7.60
2019-04-04T16:37:40.854Z,7.90
2019-04-04T16:38:40.932Z,8.20
2019-04-04T16:39:41.511Z,8.40
2019-04-04T16:40:40.909Z,7.80
2019-04-04T16:41:40.947Z,8.00
2019-04-04T16:42:40.931Z,7.40
2019-04-04T16:43:40.942Z,7.40
2019-04-04T16:44:40.944Z,8.40
2019-04-04T16:45:40.967Z,8.50
2019-04-04T16:46:41.015Z,8.00
2019-04-04T16:47:41.001Z,7.80
2019-04-04T16:48:40.990Z,7.70
2019-04-04T16:49:41.008Z,7.70
2019-04-04T16:50:41.012Z,7.40
2019-04-04T16:51:41.026Z,8.10
2019-04-04T16:52:41.040Z,8.00
2019-04-04T16:53:41.055Z,8.00
2019-04-04T16:54:41.905Z,8.40
2019-04-04T16:55:41.099Z,8.20
2019-04-04T16:56:41.085Z,7.90
2019-04-04T16:57:43.273Z,8.10
2019-04-04T16:58:41.118Z,8.60
2019-04-04T16:59:41.137Z,8.50
2019-04-04T17:00:41.133Z,8.20
2019-04-04T17:01:41.438Z,8.50
2019-04-04T17:02:41.166Z,8.80
2019-04-04T17:03:41.174Z,8.60
2019-04-04T17:04:42.963Z,8.50
2019-04-04T17:05:41.196Z,8.10
2019-04-04T17:06:41.231Z,7.90
2019-04-04T17:07:41.220Z,7.60
2019-04-04T17:08:41.222Z,7.40
2019-04-04T17:09:41.268Z,7.40
2019-04-04T17:10:41.257Z,8.00
2019-04-04T17:11:41.262Z,7.80
2019-04-04T17:12:41.293Z,7.10
2019-04-04T17:14:41.296Z,7.10
2019-04-04T17:15:41.312Z,6.70
2019-04-04T17:16:41.323Z,6.80
2019-04-04T17:17:41.341Z,6.70
2019-04-04T17:18:41.349Z,6.60
2019-04-04T17:19:41.418Z,6.80
2019-04-04T17:20:41.665Z,7.50
2019-04-04T17:21:41.384Z,7.30
2019-04-04T17:22:41.429Z,7.80
2019-04-04T17:24:41.419Z,7.00
2019-04-04T17:25:41.453Z,7.00
2019-04-04T17:26:41.443Z,7.50
2019-04-04T17:27:41.467Z,7.20
2019-04-04T17:28:41.468Z,7.00
2019-04-04T17:29:41.853Z,7.30
2019-04-04T17:30:41.491Z,7.20
2019-04-04T17:31:41.579Z,6.70
2019-04-04T17:32:41.517Z,6.80
2019-04-04T17:33:41.534Z,7.40
2019-04-04T17:34:41.539Z,6.80
2019-04-04T17:35:41.909Z,7.50
2019-04-04T17:36:41.570Z,7.30
2019-04-04T17:37:41.578Z,8.00
2019-04-04T17:38:41.643Z,8.40
2019-04-04T17:39:41.648Z,7.80
2019-04-04T17:40:41.612Z,7.70
2019-04-04T17:41:41.625Z,8.10
2019-04-04T17:42:41.761Z,7.40
2019-04-04T17:43:41.687Z,7.50
2019-04-04T17:44:42.145Z,7.90
2019-04-04T17:45:41.679Z,8.40
2019-04-04T17:46:41.689Z,9.70
2019-04-04T17:47:41.986Z,7.80
2019-04-04T17:48:41.710Z,7.80
2019-04-04T17:49:42.053Z,8.00
2019-04-04T17:50:41.736Z,7.30
2019-04-04T17:51:42.153Z,7.50
2019-04-04T17:52:41.759Z,6.80
2019-04-04T17:53:42.290Z,7.00
2019-04-04T17:54:41.825Z,6.60
2019-04-04T17:55:41.834Z,7.10
2019-04-04T17:56:42.310Z,6.50
2019-04-04T17:57:42.019Z,6.90
2019-04-04T17:58:41.840Z,6.80
2019-04-04T17:59:41.900Z,6.60
2019-04-04T18:00:41.864Z,6.50
2019-04-04T18:01:41.867Z,6.80
2019-04-04T18:02:41.879Z,7.10
2019-04-04T18:03:41.892Z,7.10
2019-04-04T18:04:48.350Z,7.20
2019-04-04T18:05:41.919Z,7.50
2019-04-04T18:06:41.928Z,6.80
2019-04-04T18:07:41.945Z,7.00
2019-04-04T18:08:41.957Z,7.30
2019-04-04T18:09:41.980Z,6.90
2019-04-04T18:10:41.977Z,10.80
2019-04-04T18:11:41.992Z,9.20
2019-04-04T18:12:42.009Z,11.30
2019-04-04T18:13:42.020Z,11.50
2019-04-04T18:14:42.078Z,42.70
2019-04-04T18:15:42.164Z,11.90
2019-04-04T18:16:42.119Z,9.70
2019-04-04T18:17:42.066Z,7.30
2019-04-04T18:18:42.077Z,7.30
2019-04-04T18:19:42.094Z,7.10
2019-04-04T18:20:42.098Z,7.10
2019-04-04T18:21:42.113Z,6.90
2019-04-04T18:22:42.124Z,6.70
2019-04-04T18:23:42.135Z,7.30
2019-04-04T18:24:42.159Z,6.80
2019-04-04T18:25:42.169Z,6.50
2019-04-04T18:26:42.174Z,6.40
2019-04-04T18:27:42.795Z,6.90
2019-04-04T18:28:42.281Z,6.30
2019-04-04T18:29:42.208Z,6.50
2019-04-04T18:30:42.224Z,6.50
2019-04-04T18:31:42.233Z,6.70
2019-04-04T18:32:42.248Z,6.60
2019-04-04T18:33:42.437Z,6.40
2019-04-04T18:34:42.266Z,6.50
2019-04-04T18:35:42.287Z,6.60
2019-04-04T18:37:42.559Z,6.40
2019-04-04T18:38:42.507Z,7.00
2019-04-04T18:39:42.331Z,6.60
2019-04-04T18:40:42.340Z,6.20
2019-04-04T18:41:42.353Z,6.50
2019-04-04T18:42:52.490Z,6.20
2019-04-04T18:43:42.391Z,6.40
2019-04-04T18:44:42.391Z,6.50
2019-04-04T18:45:42.414Z,7.10
2019-04-04T18:46:42.434Z,6.60
2019-04-04T18:47:42.954Z,7.30
2019-04-04T18:48:42.439Z,6.90
2019-04-04T18:49:42.451Z,7.50
2019-04-04T18:50:42.773Z,6.90
2019-04-04T18:51:42.807Z,7.00
2019-04-04T18:52:42.559Z,6.90
2019-04-04T18:53:42.498Z,7.00
2019-04-04T18:54:42.512Z,7.30
2019-04-04T18:55:42.533Z,7.80
2019-04-04T18:56:42.538Z,7.70
2019-04-04T18:57:42.546Z,7.50
2019-04-04T18:58:42.576Z,8.20
2019-04-04T18:59:42.580Z,7.90
2019-04-04T19:00:42.593Z,7.70
2019-04-04T19:01:43.042Z,7.60
2019-04-04T19:02:42.606Z,7.60
2019-04-04T19:03:42.990Z,7.70
2019-04-04T19:04:42.661Z,8.30
2019-04-04T19:05:42.647Z,7.50
2019-04-04T19:06:42.658Z,8.10
2019-04-04T19:07:42.663Z,7.70
2019-04-04T19:08:42.680Z,7.80
2019-04-04T19:09:42.691Z,8.00
2019-04-04T19:10:42.730Z,7.30
2019-04-04T19:11:42.710Z,7.50
2019-04-04T19:12:42.722Z,7.90
2019-04-04T19:13:44.607Z,7.60
2019-04-04T19:14:42.753Z,7.90
2019-04-04T19:15:42.799Z,8.20
2019-04-04T19:16:42.887Z,8.20
2019-04-04T19:17:42.785Z,8.40
2019-04-04T19:18:43.211Z,8.20
2019-04-04T19:19:42.808Z,8.80
2019-04-04T19:20:42.823Z,8.60
2019-04-04T19:21:42.834Z,8.80
2019-04-04T19:22:42.849Z,8.80
2019-04-04T19:23:49.240Z,8.20
2019-04-04T19:24:42.869Z,8.10
2019-04-04T19:25:42.878Z,8.80
2019-04-04T19:26:42.905Z,9.00
2019-04-04T19:27:42.903Z,8.90
2019-04-04T19:28:42.925Z,9.40
2019-04-04T19:29:42.933Z,9.40
2019-04-04T19:30:42.949Z,8.70
2019-04-04T19:31:42.956Z,8.90
2019-04-04T19:32:42.966Z,9.60
2019-04-04T19:33:42.983Z,9.00
2019-04-04T19:34:43.769Z,9.00
2019-04-04T19:35:43.070Z,9.50
2019-04-04T19:36:43.013Z,9.10
2019-04-04T19:37:43.030Z,9.30
2019-04-04T19:38:43.085Z,9.50
2019-04-04T19:39:43.054Z,9.60
2019-04-04T19:40:43.067Z,10.40
2019-04-04T19:41:43.071Z,11.30
2019-04-04T19:42:43.084Z,11.80
2019-04-04T19:43:43.112Z,10.80
2019-04-04T19:44:52.688Z,9.90
2019-04-04T19:45:43.141Z,10.10
2019-04-04T19:46:43.134Z,10.90
2019-04-04T19:47:43.147Z,11.80
2019-04-04T19:48:43.159Z,10.80
2019-04-04T19:49:43.176Z,10.20
2019-04-04T19:50:43.223Z,10.40
2019-04-04T19:51:43.194Z,11.00
2019-04-04T19:52:43.208Z,11.80